sensor_id;sensor_type;location;lat;lon;timestamp;P1;durP1;ratioP1;P2;durP2;ratioP2
7247;SDS011;3665;51.034;13.642;2023-01-10T00:01:17;3.07;;;1.60;;
7247;SDS011;3665;51.034;13.642;2023-01-10T00:06:21;1.63;;;1.43;;
7247;SDS011;3665;51.034;13.642;2023-01-10T00:16:47;2.17;;;1.80;;
7247;SDS011;3665;51.034;13.642;2023-01-10T00:21:33;1.80;;;1.70;;
7247;SDS011;3665;51.034;13.642;2023-01-10T00:26:38;2.10;;;1.90;;
7247;SDS011;3665;51.034;13.642;2023-01-10T00:31:25;3.70;;;1.97;;
7247;SDS011;3665;51.034;13.642;2023-01-10T00:36:14;1.63;;;1.53;;
7247;SDS011;3665;51.034;13.642;2023-01-10T00:41:01;2.23;;;2.00;;
7247;SDS011;3665;51.034;13.642;2023-01-10T00:46:15;2.73;;;2.07;;
7247;SDS011;3665;51.034;13.642;2023-01-10T00:51:23;2.97;;;2.00;;
7247;SDS011;3665;51.034;13.642;2023-01-10T00:56:18;3.43;;;2.10;;
7247;SDS011;3665;51.034;13.642;2023-01-10T01:06:26;2.83;;;2.07;;
7247;SDS011;3665;51.034;13.642;2023-01-10T01:11:14;2.20;;;1.70;;
7247;SDS011;3665;51.034;13.642;2023-01-10T01:15:58;3.37;;;2.20;;
7247;SDS011;3665;51.034;13.642;2023-01-10T01:20:59;4.13;;;2.40;;
7247;SDS011;3665;51.034;13.642;2023-01-10T01:26:15;3.10;;;1.93;;
7247;SDS011;3665;51.034;13.642;2023-01-10T01:31:25;3.07;;;2.07;;
7247;SDS011;3665;51.034;13.642;2023-01-10T01:41:28;3.50;;;2.27;;
7247;SDS011;3665;51.034;13.642;2023-01-10T01:46:32;4.23;;;2.67;;
7247;SDS011;3665;51.034;13.642;2023-01-10T01:51:39;4.37;;;3.00;;
7247;SDS011;3665;51.034;13.642;2023-01-10T01:56:42;3.60;;;3.30;;
7247;SDS011;3665;51.034;13.642;2023-01-10T02:02:09;3.73;;;3.33;;
7247;SDS011;3665;51.034;13.642;2023-01-10T02:12:59;4.93;;;3.13;;
7247;SDS011;3665;51.034;13.642;2023-01-10T02:17:59;3.37;;;3.07;;
7247;SDS011;3665;51.034;13.642;2023-01-10T02:40:02;6.10;;;3.27;;
7247;SDS011;3665;51.034;13.642;2023-01-10T02:50:45;4.77;;;3.37;;
7247;SDS011;3665;51.034;13.642;2023-01-10T02:55:38;3.77;;;2.90;;
7247;SDS011;3665;51.034;13.642;2023-01-10T03:00:56;6.60;;;3.63;;
7247;SDS011;3665;51.034;13.642;2023-01-10T03:11:21;5.47;;;4.00;;
7247;SDS011;3665;51.034;13.642;2023-01-10T03:16:24;6.93;;;3.90;;
7247;SDS011;3665;51.034;13.642;2023-01-10T03:21:15;4.77;;;3.73;;
7247;SDS011;3665;51.034;13.642;2023-01-10T03:26:26;5.73;;;3.83;;
7247;SDS011;3665;51.034;13.642;2023-01-10T03:31:38;5.10;;;3.63;;
7247;SDS011;3665;51.034;13.642;2023-01-10T03:36:29;6.57;;;4.20;;
7247;SDS011;3665;51.034;13.642;2023-01-10T03:41:32;5.87;;;4.03;;
7247;SDS011;3665;51.034;13.642;2023-01-10T03:46:31;8.20;;;4.27;;
7247;SDS011;3665;51.034;13.642;2023-01-10T03:51:38;7.00;;;4.50;;
7247;SDS011;3665;51.034;13.642;2023-01-10T03:57:01;6.17;;;4.33;;
7247;SDS011;3665;51.034;13.642;2023-01-10T04:02:16;7.27;;;3.97;;
7247;SDS011;3665;51.034;13.642;2023-01-10T04:07:09;6.13;;;3.67;;
7247;SDS011;3665;51.034;13.642;2023-01-10T04:12:09;7.20;;;4.23;;
7247;SDS011;3665;51.034;13.642;2023-01-10T04:16:55;6.47;;;3.60;;
7247;SDS011;3665;51.034;13.642;2023-01-10T04:26:49;5.57;;;4.73;;
7247;SDS011;3665;51.034;13.642;2023-01-10T04:31:56;10.43;;;5.00;;
7247;SDS011;3665;51.034;13.642;2023-01-10T04:36:41;7.43;;;5.20;;
7247;SDS011;3665;51.034;13.642;2023-01-10T04:41:29;6.43;;;4.93;;
7247;SDS011;3665;51.034;13.642;2023-01-10T04:46:15;6.60;;;4.73;;
7247;SDS011;3665;51.034;13.642;2023-01-10T04:51:06;6.77;;;4.73;;
7247;SDS011;3665;51.034;13.642;2023-01-10T04:55:53;6.27;;;4.80;;
7247;SDS011;3665;51.034;13.642;2023-01-10T05:06:31;8.43;;;4.43;;
7247;SDS011;3665;51.034;13.642;2023-01-10T05:11:19;7.50;;;4.90;;
7247;SDS011;3665;51.034;13.642;2023-01-10T05:21:13;7.10;;;4.30;;
7247;SDS011;3665;51.034;13.642;2023-01-10T05:26:04;6.40;;;4.30;;
7247;SDS011;3665;51.034;13.642;2023-01-10T05:30:49;8.00;;;4.33;;
7247;SDS011;3665;51.034;13.642;2023-01-10T05:35:38;7.43;;;4.70;;
7247;SDS011;3665;51.034;13.642;2023-01-10T05:40:23;6.03;;;4.50;;
7247;SDS011;3665;51.034;13.642;2023-01-10T05:45:12;6.10;;;4.37;;
7247;SDS011;3665;51.034;13.642;2023-01-10T05:50:16;5.53;;;4.77;;
7247;SDS011;3665;51.034;13.642;2023-01-10T05:55:06;6.03;;;5.07;;
7247;SDS011;3665;51.034;13.642;2023-01-10T05:59:51;6.37;;;4.60;;
7247;SDS011;3665;51.034;13.642;2023-01-10T06:15:35;8.13;;;4.47;;
7247;SDS011;3665;51.034;13.642;2023-01-10T06:20:23;8.63;;;4.70;;
7247;SDS011;3665;51.034;13.642;2023-01-10T06:25:17;8.70;;;5.10;;
7247;SDS011;3665;51.034;13.642;2023-01-10T06:30:03;8.33;;;5.20;;
7247;SDS011;3665;51.034;13.642;2023-01-10T06:34:48;8.90;;;4.73;;
7247;SDS011;3665;51.034;13.642;2023-01-10T06:39:35;5.87;;;4.03;;
7247;SDS011;3665;51.034;13.642;2023-01-10T06:44:24;6.20;;;4.57;;
7247;SDS011;3665;51.034;13.642;2023-01-10T06:49:30;8.80;;;5.03;;
7247;SDS011;3665;51.034;13.642;2023-01-10T06:54:15;7.37;;;4.90;;
7247;SDS011;3665;51.034;13.642;2023-01-10T06:59:05;8.40;;;5.17;;
7247;SDS011;3665;51.034;13.642;2023-01-10T07:03:53;7.77;;;5.07;;
7247;SDS011;3665;51.034;13.642;2023-01-10T07:08:44;8.63;;;5.43;;
7247;SDS011;3665;51.034;13.642;2023-01-10T07:13:47;7.27;;;5.40;;
7247;SDS011;3665;51.034;13.642;2023-01-10T07:18:48;7.77;;;5.43;;
7247;SDS011;3665;51.034;13.642;2023-01-10T07:28:57;8.27;;;5.60;;
7247;SDS011;3665;51.034;13.642;2023-01-10T07:34:02;7.70;;;5.23;;
7247;SDS011;3665;51.034;13.642;2023-01-10T07:38:50;8.13;;;5.07;;
7247;SDS011;3665;51.034;13.642;2023-01-10T07:43:39;5.33;;;4.83;;
7247;SDS011;3665;51.034;13.642;2023-01-10T07:48:26;6.50;;;4.93;;
7247;SDS011;3665;51.034;13.642;2023-01-10T07:53:27;8.17;;;5.23;;
7247;SDS011;3665;51.034;13.642;2023-01-10T07:58:15;5.77;;;5.03;;
7247;SDS011;3665;51.034;13.642;2023-01-10T08:03:05;7.63;;;5.53;;
7247;SDS011;3665;51.034;13.642;2023-01-10T08:07:52;6.70;;;5.53;;
7247;SDS011;3665;51.034;13.642;2023-01-10T08:12:41;10.90;;;5.80;;
7247;SDS011;3665;51.034;13.642;2023-01-10T08:17:31;7.30;;;4.80;;
7247;SDS011;3665;51.034;13.642;2023-01-10T08:22:37;9.23;;;5.47;;
7247;SDS011;3665;51.034;13.642;2023-01-10T08:27:21;7.53;;;4.83;;
7247;SDS011;3665;51.034;13.642;2023-01-10T08:32:08;9.60;;;5.37;;
7247;SDS011;3665;51.034;13.642;2023-01-10T08:42:32;5.33;;;4.67;;
7247;SDS011;3665;51.034;13.642;2023-01-10T08:47:21;6.77;;;4.80;;
7247;SDS011;3665;51.034;13.642;2023-01-10T08:52:07;6.63;;;4.13;;
7247;SDS011;3665;51.034;13.642;2023-01-10T08:56:58;6.00;;;3.57;;
7247;SDS011;3665;51.034;13.642;2023-01-10T09:01:45;3.53;;;2.87;;
7247;SDS011;3665;51.034;13.642;2023-01-10T09:06:32;3.97;;;3.07;;
7247;SDS011;3665;51.034;13.642;2023-01-10T09:11:22;4.13;;;2.70;;
7247;SDS011;3665;51.034;13.642;2023-01-10T09:16:11;3.17;;;2.83;;
7247;SDS011;3665;51.034;13.642;2023-01-10T09:20:55;3.87;;;2.87;;
7247;SDS011;3665;51.034;13.642;2023-01-10T09:26:18;3.80;;;2.77;;
7247;SDS011;3665;51.034;13.642;2023-01-10T09:31:03;2.90;;;2.60;;
7247;SDS011;3665;51.034;13.642;2023-01-10T09:35:55;5.23;;;3.50;;
7247;SDS011;3665;51.034;13.642;2023-01-10T09:51:37;3.87;;;3.27;;
7247;SDS011;3665;51.034;13.642;2023-01-10T09:56:26;5.53;;;3.23;;
7247;SDS011;3665;51.034;13.642;2023-01-10T10:01:17;4.63;;;3.37;;
7247;SDS011;3665;51.034;13.642;2023-01-10T10:06:17;5.27;;;3.40;;
7247;SDS011;3665;51.034;13.642;2023-01-10T10:16:46;4.20;;;2.37;;
7247;SDS011;3665;51.034;13.642;2023-01-10T10:21:47;4.83;;;2.60;;
7247;SDS011;3665;51.034;13.642;2023-01-10T10:32:34;6.83;;;2.07;;
7247;SDS011;3665;51.034;13.642;2023-01-10T10:37:52;3.73;;;2.10;;
7247;SDS011;3665;51.034;13.642;2023-01-10T10:48:56;4.23;;;1.90;;
7247;SDS011;3665;51.034;13.642;2023-01-10T10:53:45;5.33;;;2.23;;
7247;SDS011;3665;51.034;13.642;2023-01-10T10:58:35;3.03;;;1.97;;
7247;SDS011;3665;51.034;13.642;2023-01-10T11:03:31;4.33;;;2.63;;
7247;SDS011;3665;51.034;13.642;2023-01-10T11:08:23;4.50;;;3.00;;
7247;SDS011;3665;51.034;13.642;2023-01-10T11:13:13;4.77;;;3.17;;
7247;SDS011;3665;51.034;13.642;2023-01-10T11:18:19;4.07;;;3.67;;
7247;SDS011;3665;51.034;13.642;2023-01-10T11:23:05;5.90;;;3.30;;
7247;SDS011;3665;51.034;13.642;2023-01-10T11:27:52;6.07;;;2.93;;
7247;SDS011;3665;51.034;13.642;2023-01-10T11:32:47;6.47;;;3.13;;
7247;SDS011;3665;51.034;13.642;2023-01-10T11:38:02;4.90;;;3.13;;
7247;SDS011;3665;51.034;13.642;2023-01-10T11:42:47;7.90;;;3.00;;
7247;SDS011;3665;51.034;13.642;2023-01-10T11:47:35;4.83;;;2.97;;
7247;SDS011;3665;51.034;13.642;2023-01-10T11:53:02;3.93;;;2.30;;
7247;SDS011;3665;51.034;13.642;2023-01-10T12:03:41;6.07;;;2.07;;
7247;SDS011;3665;51.034;13.642;2023-01-10T12:09:03;4.10;;;2.20;;
7247;SDS011;3665;51.034;13.642;2023-01-10T12:14:00;5.13;;;1.93;;
7247;SDS011;3665;51.034;13.642;2023-01-10T12:18:48;4.43;;;2.47;;
7247;SDS011;3665;51.034;13.642;2023-01-10T12:23:53;8.27;;;2.80;;
7247;SDS011;3665;51.034;13.642;2023-01-10T12:28:41;3.77;;;2.40;;
7247;SDS011;3665;51.034;13.642;2023-01-10T12:33:31;5.33;;;2.10;;
7247;SDS011;3665;51.034;13.642;2023-01-10T12:38:19;3.63;;;2.00;;
7247;SDS011;3665;51.034;13.642;2023-01-10T12:43:57;7.80;;;2.43;;
7247;SDS011;3665;51.034;13.642;2023-01-10T12:49:46;9.33;;;2.63;;
7247;SDS011;3665;51.034;13.642;2023-01-10T12:54:33;7.47;;;2.67;;
7247;SDS011;3665;51.034;13.642;2023-01-10T12:59:22;7.40;;;2.10;;
7247;SDS011;3665;51.034;13.642;2023-01-10T13:04:30;4.93;;;2.37;;
7247;SDS011;3665;51.034;13.642;2023-01-10T13:10:17;5.40;;;2.00;;
7247;SDS011;3665;51.034;13.642;2023-01-10T13:16:19;5.67;;;1.83;;
7247;SDS011;3665;51.034;13.642;2023-01-10T13:21:29;6.43;;;2.33;;
7247;SDS011;3665;51.034;13.642;2023-01-10T13:26:16;4.57;;;1.93;;
7247;SDS011;3665;51.034;13.642;2023-01-10T13:31:05;5.77;;;2.00;;
7247;SDS011;3665;51.034;13.642;2023-01-10T13:36:19;5.20;;;2.00;;
7247;SDS011;3665;51.034;13.642;2023-01-10T14:11:24;4.53;;;1.63;;
7247;SDS011;3665;51.034;13.642;2023-01-10T14:23:54;4.30;;;1.83;;
7247;SDS011;3665;51.034;13.642;2023-01-10T14:33:44;1.97;;;1.50;;
7247;SDS011;3665;51.034;13.642;2023-01-10T14:38:33;3.27;;;1.70;;
7247;SDS011;3665;51.034;13.642;2023-01-10T14:43:37;7.20;;;2.03;;
7247;SDS011;3665;51.034;13.642;2023-01-10T14:48:30;2.33;;;1.87;;
7247;SDS011;3665;51.034;13.642;2023-01-10T14:53:29;5.03;;;2.00;;
7247;SDS011;3665;51.034;13.642;2023-01-10T14:58:16;5.20;;;2.20;;
7247;SDS011;3665;51.034;13.642;2023-01-10T15:03:04;5.17;;;1.87;;
7247;SDS011;3665;51.034;13.642;2023-01-10T15:07:53;3.57;;;2.10;;
7247;SDS011;3665;51.034;13.642;2023-01-10T15:12:42;6.70;;;2.77;;
7247;SDS011;3665;51.034;13.642;2023-01-10T15:17:27;4.77;;;1.83;;
7247;SDS011;3665;51.034;13.642;2023-01-10T15:22:26;6.47;;;1.97;;
7247;SDS011;3665;51.034;13.642;2023-01-10T15:27:21;4.10;;;2.13;;
7247;SDS011;3665;51.034;13.642;2023-01-10T15:32:26;4.00;;;2.53;;
7247;SDS011;3665;51.034;13.642;2023-01-10T15:37:46;5.63;;;2.80;;
7247;SDS011;3665;51.034;13.642;2023-01-10T15:42:35;7.03;;;3.10;;
7247;SDS011;3665;51.034;13.642;2023-01-10T15:47:38;4.40;;;2.47;;
7247;SDS011;3665;51.034;13.642;2023-01-10T15:52:40;4.47;;;2.37;;
7247;SDS011;3665;51.034;13.642;2023-01-10T15:57:32;4.17;;;3.10;;
7247;SDS011;3665;51.034;13.642;2023-01-10T16:02:21;6.07;;;3.53;;
7247;SDS011;3665;51.034;13.642;2023-01-10T16:07:22;4.83;;;2.90;;
7247;SDS011;3665;51.034;13.642;2023-01-10T16:12:40;3.67;;;2.43;;
7247;SDS011;3665;51.034;13.642;2023-01-10T16:17:46;3.27;;;2.60;;
7247;SDS011;3665;51.034;13.642;2023-01-10T16:22:35;6.43;;;2.70;;
7247;SDS011;3665;51.034;13.642;2023-01-10T16:27:36;5.00;;;2.63;;
7247;SDS011;3665;51.034;13.642;2023-01-10T16:33:32;8.17;;;2.40;;
7247;SDS011;3665;51.034;13.642;2023-01-10T16:43:40;4.90;;;2.50;;
7247;SDS011;3665;51.034;13.642;2023-01-10T16:49:13;4.50;;;2.97;;
7247;SDS011;3665;51.034;13.642;2023-01-10T16:54:03;6.83;;;4.10;;
7247;SDS011;3665;51.034;13.642;2023-01-10T16:59:19;7.07;;;3.50;;
7247;SDS011;3665;51.034;13.642;2023-01-10T17:04:11;8.10;;;3.47;;
7247;SDS011;3665;51.034;13.642;2023-01-10T17:14:18;5.33;;;3.50;;
7247;SDS011;3665;51.034;13.642;2023-01-10T17:19:04;8.70;;;4.57;;
7247;SDS011;3665;51.034;13.642;2023-01-10T17:23:56;4.73;;;3.30;;
7247;SDS011;3665;51.034;13.642;2023-01-10T17:28:42;5.47;;;3.80;;
7247;SDS011;3665;51.034;13.642;2023-01-10T17:44:46;6.77;;;3.77;;
7247;SDS011;3665;51.034;13.642;2023-01-10T17:56:12;7.63;;;5.27;;
7247;SDS011;3665;51.034;13.642;2023-01-10T18:07:22;4.90;;;3.90;;
7247;SDS011;3665;51.034;13.642;2023-01-10T18:12:11;5.50;;;3.60;;
7247;SDS011;3665;51.034;13.642;2023-01-10T18:17:17;5.03;;;2.73;;
7247;SDS011;3665;51.034;13.642;2023-01-10T18:28:12;4.27;;;2.60;;
7247;SDS011;3665;51.034;13.642;2023-01-10T18:33:45;4.37;;;2.00;;
7247;SDS011;3665;51.034;13.642;2023-01-10T18:38:40;3.03;;;1.97;;
7247;SDS011;3665;51.034;13.642;2023-01-10T18:49:19;7.27;;;2.47;;
7247;SDS011;3665;51.034;13.642;2023-01-10T19:17:50;5.27;;;2.40;;
7247;SDS011;3665;51.034;13.642;2023-01-10T19:46:40;3.03;;;1.90;;
7247;SDS011;3665;51.034;13.642;2023-01-10T19:51:36;5.70;;;2.10;;
7247;SDS011;3665;51.034;13.642;2023-01-10T20:07:29;6.83;;;2.80;;
7247;SDS011;3665;51.034;13.642;2023-01-10T20:12:30;2.50;;;2.30;;
7247;SDS011;3665;51.034;13.642;2023-01-10T20:18:18;4.47;;;2.23;;
7247;SDS011;3665;51.034;13.642;2023-01-10T21:03:38;3.60;;;1.90;;
7247;SDS011;3665;51.034;13.642;2023-01-10T21:10:19;5.43;;;2.10;;
7247;SDS011;3665;51.034;13.642;2023-01-10T21:16:26;5.13;;;2.23;;
7247;SDS011;3665;51.034;13.642;2023-01-10T21:21:19;4.67;;;1.97;;
7247;SDS011;3665;51.034;13.642;2023-01-10T21:26:17;3.33;;;2.00;;
7247;SDS011;3665;51.034;13.642;2023-01-10T21:31:04;2.53;;;1.63;;
7247;SDS011;3665;51.034;13.642;2023-01-10T21:35:52;4.67;;;2.03;;
7247;SDS011;3665;51.034;13.642;2023-01-10T21:40:44;2.83;;;1.63;;
7247;SDS011;3665;51.034;13.642;2023-01-10T21:45:27;4.23;;;2.77;;
7247;SDS011;3665;51.034;13.642;2023-01-10T21:50:18;5.37;;;2.40;;
7247;SDS011;3665;51.034;13.642;2023-01-10T21:55:07;4.50;;;1.97;;
7247;SDS011;3665;51.034;13.642;2023-01-10T21:59:53;3.30;;;1.67;;
7247;SDS011;3665;51.034;13.642;2023-01-10T22:04:43;4.77;;;2.23;;
7247;SDS011;3665;51.034;13.642;2023-01-10T22:09:28;4.70;;;2.13;;
7247;SDS011;3665;51.034;13.642;2023-01-10T22:14:51;4.53;;;2.07;;
7247;SDS011;3665;51.034;13.642;2023-01-10T22:19:55;6.20;;;2.27;;
7247;SDS011;3665;51.034;13.642;2023-01-10T22:24:56;2.33;;;1.93;;
7247;SDS011;3665;51.034;13.642;2023-01-10T22:29:46;4.03;;;1.83;;
7247;SDS011;3665;51.034;13.642;2023-01-10T22:34:54;4.13;;;2.00;;
7247;SDS011;3665;51.034;13.642;2023-01-10T22:39:55;3.93;;;2.40;;
7247;SDS011;3665;51.034;13.642;2023-01-10T22:45:17;4.20;;;2.70;;
7247;SDS011;3665;51.034;13.642;2023-01-10T22:50:54;4.40;;;2.20;;
7247;SDS011;3665;51.034;13.642;2023-01-10T22:56:32;2.63;;;1.70;;
